Terminal Aerodrome Forecast
Issued by NWS Goodland, KS

Home | Current Version | Previous Version | Text Only | Print | Product List | Glossary On
Versions: 1 2 3 4 5 6 7 8 9 10 11 12 13 14 15 16 17 18
061
FTUS43 KGLD 232012 AAA
TAFGLD
TAF AMD
KGLD 232012Z 2320/2418 04012G20KT 1SM -FZRA BR OVC005
     FM240000 01012G20KT 1 1/2SM -FZRASN OVC005
     FM240300 36015G25KT 2SM -SHSN BKN005
     FM240600 35015G25KT 3SM -SN BKN007=

USA.gov is the U.S. government's official web portal to all federal, state and local government web resources and services.